Home > Products > Valid Products > MTR

000
SAUS46 KSGX 011953
MTRCZZ
METAR KCZZ 011952Z AUTO 25008KT 28/04 A2981 RMK AO1 SLP065 T02830044





000
SAUS46 KSGX 011952
MTRSAN
METAR KSAN 011951Z 22008KT 10SM CLR 23/16 A2981 RMK AO2 SLP094
T02280156





000
SAUS46 KSGX 011853
MTRCZZ
METAR KCZZ 011852Z AUTO 22008KT 27/05 A2983 RMK AO1 SLP071 T02670050
$





000
SAUS46 KSGX 011852
MTRSAN
METAR KSAN 011851Z 22006KT 10SM FEW015 22/16 A2983 RMK AO2 SLP099
T02170156 $





000
SAUS46 KSGX 011753
MTRCZZ
METAR KCZZ 011752Z AUTO 18006KT 24/04 A2984 RMK AO1 SLP075 T02440044
10250 20067 58005 $





000
SAUS46 KSGX 011752
MTRSAN
METAR KSAN 011751Z 18004KT 9SM FEW015 22/16 A2983 RMK AO2 SLP102
T02170156 10217 20194 58001





000
SAUS46 KSGX 011714
MTRSAN
SPECI KSAN 011713Z 21004KT 8SM SCT015 21/16 A2984 RMK AO2





000
SAUS46 KSGX 011654
MTRCZZ
METAR KCZZ 011652Z AUTO 19006KT 23/04 A2985 RMK AO1 SLP078 T02280044
$





000
SAUS46 KSGX 011652
MTRSAN
METAR KSAN 011651Z 15003KT 7SM BKN015 21/16 A2985 RMK AO2 SLP108
T02060156





000
SAUS46 KSGX 011554
MTRCZZ
METAR KCZZ 011552Z AUTO 00000KT 19/08 A2985 RMK AO1 SLP080 T01940078
$





000
SAUS46 KSGX 011552
MTRSAN
METAR KSAN 011551Z 14004KT 9SM BKN015 20/16 A2985 RMK AO2 SLP107
T02000156





000
SAUS46 KSGX 011453
MTRCZZ
METAR KCZZ 011452Z AUTO 05004KT 12/07 A2985 RMK AO1 SLP085 T01220072
53009 $





000
SAUS46 KSGX 011452
MTRSAN
METAR KSAN 011451Z 16005KT 8SM BKN015 19/16 A2984 RMK AO2 SLP104
T01940156 53019 $





000
SAUS46 KSGX 011434
MTRSAN
SPECI KSAN 011432Z 16004KT 7SM BKN015 19/16 A2983 RMK AO2 $





000
SAUS46 KSGX 011358
MTRSAN
SPECI KSAN 011357Z 18005KT 8SM BKN013 19/16 A2983 RMK AO2 $





000
SAUS46 KSGX 011353
MTRCZZ
METAR KCZZ 011352Z AUTO 04006KT 08/06 A2984 RMK AO1 SLP081 T00830056
$





000
SAUS46 KSGX 011352
MTRSAN
METAR KSAN 011351Z 18005KT 8SM BKN015 19/16 A2982 RMK AO2 SLP099
T01940161





000
SAUS46 KSGX 011342
MTRSAN
SPECI KSAN 011335Z 18007KT 8SM BKN016 19/16 A2982 RMK AO2





000
SAUS46 KSGX 011253
MTRCZZ
METAR KCZZ 011252Z AUTO 00000KT 08/04 A2982 RMK AO1 SLP072 T00830044
$





000
SAUS46 KSGX 011252
MTRSAN
METAR KSAN 011251Z 17008KT 9SM OVC014 19/16 A2980 RMK AO2 SLP089
T01940161





000
SAUS46 KSGX 011209
MTRSAN
SPECI KSAN 011208Z 17007KT 10SM BKN014 20/17 A2979 RMK AO2





000
SAUS46 KSGX 011153
MTRSAN
METAR KSAN 011151Z 17009KT 10SM BKN016 20/17 A2978 RMK AO2 SLP085
T02000167 10217 20200 58004





000
SAUS46 KSGX 011153
MTRCZZ
METAR KCZZ 011152Z AUTO 05007KT 08/06 A2983 RMK AO1 SLP072 T00830056
10128 20078 53000 $





000
SAUS46 KSGX 011059
MTRSAN
SPECI KSAN 011058Z 17005KT 10SM BKN016 21/17 A2979 RMK AO2





000
SAUS46 KSGX 011053
MTRCZZ
METAR KCZZ 011052Z AUTO 04006KT 09/06 A2982 RMK AO1 SLP068 T00890056
$





000
SAUS46 KSGX 011052
MTRSAN
METAR KSAN 011051Z 15004KT 10SM BKN014 21/17 A2979 RMK AO2 SLP087
T02060167





000
SAUS46 KSGX 010953
MTRCZZ
METAR KCZZ 010952Z AUTO 04005KT 09/06 A2982 RMK AO1 SLP069 T00940061
$





000
SAUS46 KSGX 010952
MTRSAN
METAR KSAN 010951Z 15005KT 10SM FEW010 BKN014 21/17 A2979 RMK AO2
SLP087 T02110172





000
SAUS46 KSGX 010853
MTRCZZ
METAR KCZZ 010852Z AUTO 04005KT 10/07 A2982 RMK AO1 SLP069 T01000067
56004 $





000
SAUS46 KSGX 010852
MTRSAN
METAR KSAN 010851Z 16004KT 10SM BKN012 21/17 A2979 RMK AO2 SLP089
T02110172 55001





000
SAUS46 KSGX 010755
MTRSAN
METAR KSAN 010751Z COR 16005KT 8SM FEW006 BKN010 21/18 A2979 RMK AO2
SLP087 T02060183 402670183





000
SAUS46 KSGX 010753
MTRCZZ
METAR KCZZ 010752Z AUTO 06004KT 11/07 A2982 RMK AO1 SLP069 T01060072
403000067 $





000
SAUS46 KSGX 010752
MTRSAN
METAR KSAN 010751Z 16005KT 8SM FEW006 OVC010 21/18 A2979 RMK AO2
SLP087 T02060183 402670183





000
SAUS46 KSGX 010653
MTRCZZ
METAR KCZZ 010652Z AUTO 05004KT 12/08 A2983 RMK AO1 SLP070 T01220083
$





000
SAUS46 KSGX 010652
MTRSAN
METAR KSAN 010651Z 17005KT 9SM BKN010 21/18 A2980 RMK AO2 SLP089
T02110183





000
SAUS46 KSGX 010624
MTRSAN
SPECI KSAN 010623Z 18003KT 10SM BKN010 21/18 A2980 RMK AO2





000
SAUS46 KSGX 010553
MTRCZZ
METAR KCZZ 010552Z AUTO 05005KT 13/08 A2984 RMK AO1 SLP073 T01280083
10272 20128 50000 $





000
SAUS46 KSGX 010552
MTRSAN
METAR KSAN 010551Z 17004KT 10SM FEW010 22/18 A2980 RMK AO2 SLP090
T02170183 10250 20217 50000





000
SAUS46 KSGX 010453
MTRCZZ
METAR KCZZ 010452Z AUTO 02004KT 14/09 A2985 RMK AO1 SLP077 T01390089
$





000
SAUS46 KSGX 010453
MTRSAN
METAR KSAN 010451Z 19003KT 10SM FEW010 22/18 A2981 RMK AO2 SLP093
T02170178





000
SAUS46 KSGX 010353
MTRCZZ
METAR KCZZ 010352Z AUTO 00000KT 17/11 A2984 RMK AO1 SLP077 T01670111
$





000
SAUS46 KSGX 010353
MTRSAN
METAR KSAN 010351Z 20003KT 10SM FEW010 22/18 A2980 RMK AO2 SLP092
T02220178





000
SAUS46 KSGX 010253
MTRSAN
METAR KSAN 010251Z 22003KT 10SM FEW010 22/18 A2980 RMK AO2 SLP090
T02220183 53004





000
SAUS46 KSGX 010253
MTRCZZ
METAR KCZZ 010252Z AUTO 00000KT 20/12 A2984 RMK AO1 SLP078 T02000117
53010 $





000
SAUS46 KSGX 010153
MTRCZZ
METAR KCZZ 010152Z AUTO 23008KT 22/09 A2982 RMK AO1 SLP074 T02170094
$





000
SAUS46 KSGX 010152
MTRSAN
METAR KSAN 010151Z VRB03KT 10SM FEW010 23/17 A2979 RMK AO2 SLP088
T02330172





000
SAUS46 KSGX 010054
MTRCZZ
METAR KCZZ 010052Z AUTO 23011KT 25/10 A2981 RMK AO1 SLP068 T02500100
$





000
SAUS46 KSGX 010052
MTRSAN
METAR KSAN 010051Z 30004KT 10SM FEW010 24/16 A2979 RMK AO2 SLP087
T02390156





000
SAUS46 KSGX 302353
MTRCZZ
METAR KCZZ 302352Z AUTO 24013G18KT 27/09 A2981 RMK AO1 SLP067
T02720089 10300 20272 55008 $





000
SAUS46 KSGX 302352
MTRSAN
METAR KSAN 302351Z VRB03KT 10SM FEW010 24/16 A2979 RMK AO2 SLP086
T02440156 10267 20239 56012





000
SAUS46 KSGX 302253
MTRCZZ
METAR KCZZ 302252Z AUTO 24014G18KT 28/08 A2980 RMK AO1 SLP064
T02830083 $





000
SAUS46 KSGX 302252
MTRSAN
METAR KSAN 302251Z 27005KT 10SM FEW010 24/18 A2979 RMK AO2 SLP087
T02390178





000
SAUS46 KSGX 302153
MTRCZZ
METAR KCZZ 302152Z AUTO 24012KT 29/07 A2981 RMK AO1 SLP066 T02940067
$





000
SAUS46 KSGX 302152
MTRSAN
METAR KSAN 302151Z 30007KT 10SM SCT010 25/18 A2980 RMK AO2 SLP092
T02500178





000
SAUS46 KSGX 302053
MTRCZZ
METAR KCZZ 302052Z AUTO 24011G16KT 29/04 A2983 RMK AO1 SLP073
T02940044 58017 $





000
SAUS46 KSGX 302052
MTRSAN
METAR KSAN 302051Z 28008KT 10SM SCT010 25/18 A2982 RMK AO2 SLP098
T02500178 58016





000
SAUS46 KSGX 301953
MTRCZZ
METAR KCZZ 301952Z AUTO 20014G19KT 29/03 A2985 RMK AO1 SLP080
T02890028 $





000
SAUS46 KSGX 301952
MTRSAN
METAR KSAN 301951Z 28008KT 10SM SCT010 24/17 A2984 RMK AO2 SLP106
T02440172





000
SAUS46 KSGX 301853
MTRCZZ
METAR KCZZ 301852Z AUTO 21008KT 29/01 A2987 RMK AO1 SLP085 T02940011
$





000
SAUS46 KSGX 301852
MTRSAN
METAR KSAN 301851Z 30007KT 9SM CLR 25/16 A2986 RMK AO2 SLP111
T02500156





000
SAUS46 KSGX 301753
MTRCZZ
METAR KCZZ 301752Z AUTO 34005KT 28/02 A2989 RMK AO1 SLP090 T02780017
10278 20078 58007 $





000
SAUS46 KSGX 301752
MTRSAN
METAR KSAN 301751Z 31005KT 10SM CLR 24/14 A2987 RMK AO2 SLP113
T02390144 10244 20183 50000





000
SAUS46 KSGX 301654
MTRCZZ
METAR KCZZ 301652Z AUTO 12004KT 26/03 A2990 RMK AO1 SLP097 T02610028
$





000
SAUS46 KSGX 301652
MTRSAN
METAR KSAN 301651Z 00000KT 9SM CLR 23/14 A2987 RMK AO2 SLP115
T02280144





000
SAUS46 KSGX 301553
MTRCZZ
METAR KCZZ 301552Z AUTO 00000KT 20/04 A2991 RMK AO1 SLP101 T02000039
$





000
SAUS46 KSGX 301552
MTRSAN
METAR KSAN 301551Z 00000KT 10SM CLR 22/14 A2988 RMK AO2 SLP118
T02170144





000
SAUS46 KSGX 301453
MTRCZZ
METAR KCZZ 301452Z AUTO 00000KT 13/04 A2991 RMK AO1 SLP105 T01330044
53004 $





000
SAUS46 KSGX 301452
MTRSAN
METAR KSAN 301451Z 00000KT 10SM CLR 21/14 A2987 RMK AO2 SLP113
T02060144 53001





000
SAUS46 KSGX 301353
MTRCZZ
METAR KCZZ 301352Z AUTO 00000KT 10/03 A2990 RMK AO1 SLP102 T01000028
$





000
SAUS46 KSGX 301352
MTRSAN
METAR KSAN 301351Z 00000KT 10SM CLR 19/14 A2987 RMK AO2 SLP113
T01890139





000
SAUS46 KSGX 301253
MTRCZZ
METAR KCZZ 301252Z AUTO 05005KT 10/03 A2990 RMK AO1 SLP099 T01000028
$





000
SAUS46 KSGX 301252
MTRSAN
METAR KSAN 301251Z 00000KT 10SM CLR 18/14 A2986 RMK AO2 SLP111
T01830139





000
SAUS46 KSGX 301153
MTRCZZ
METAR KCZZ 301152Z AUTO 05004KT 07/02 A2990 RMK AO1 SLP099 T00720022
10128 20067 58007 $





000
SAUS46 KSGX 301152
MTRSAN
METAR KSAN 301151Z 00000KT 10SM CLR 18/14 A2986 RMK AO2 SLP112
T01830144 10206 20183 55009





000
SAUS46 KSGX 301053
MTRCZZ
METAR KCZZ 301052Z AUTO 05005KT 08/02 A2990 RMK AO1 SLP100 T00830022
$





000
SAUS46 KSGX 301052
MTRSAN
METAR KSAN 301051Z 00000KT 10SM CLR 19/14 A2986 RMK AO2 SLP111
T01940144





000
SAUS46 KSGX 300953
MTRCZZ
METAR KCZZ 300952Z AUTO 04005KT 09/03 A2991 RMK AO1 SLP101 T00940028
$





000
SAUS46 KSGX 300952
MTRSAN
METAR KSAN 300951Z 00000KT 10SM CLR 20/15 A2987 RMK AO2 SLP115
T02000150





000
SAUS46 KSGX 300853
MTRCZZ
METAR KCZZ 300852Z AUTO 05004KT 08/03 A2992 RMK AO1 SLP104 T00830028
53001 $





000
SAUS46 KSGX 300852
MTRSAN
METAR KSAN 300851Z 00000KT 10SM CLR 20/15 A2989 RMK AO2 SLP121
T02000150 58004





000
SAUS46 KSGX 300753
MTRCZZ
METAR KCZZ 300752Z AUTO 07006KT 09/03 A2992 RMK AO1 SLP103 T00940033
402830039 $





000
SAUS46 KSGX 300752
MTRSAN
METAR KSAN 300751Z 00000KT 10SM CLR 20/16 A2990 RMK AO2 SLP123
T02000156 402390178





000
SAUS46 KSGX 300653
MTRCZZ
METAR KCZZ 300652Z AUTO 00000KT 12/05 A2992 RMK AO1 SLP103 T01170050
$





000
SAUS46 KSGX 300652
MTRSAN
METAR KSAN 300651Z 00000KT 10SM CLR 21/16 A2990 RMK AO2 SLP124
T02060156





000
SAUS46 KSGX 300553
MTRCZZ
METAR KCZZ 300552Z AUTO 06004KT 13/06 A2992 RMK AO1 SLP103 T01280056
10256 20106 50003 $





000
SAUS46 KSGX 300552
MTRSAN
METAR KSAN 300551Z 00000KT 10SM FEW016 21/16 A2990 RMK AO2 SLP125
T02060156 10233 20206 51007





000
SAUS46 KSGX 300453
MTRCZZ
METAR KCZZ 300452Z AUTO 05003KT 14/08 A2992 RMK AO1 SLP107 T01390083
$





000
SAUS46 KSGX 300452
MTRSAN
METAR KSAN 300451Z 36005KT 10SM FEW016 21/16 A2990 RMK AO2 SLP125
T02060156





000
SAUS46 KSGX 300353
MTRCZZ
METAR KCZZ 300352Z AUTO 03004KT 16/09 A2992 RMK AO1 SLP108 T01560094
$





000
SAUS46 KSGX 300352
MTRSAN
METAR KSAN 300351Z 35005KT 10SM SCT016 21/17 A2989 RMK AO2 SLP122
T02110167





000
SAUS46 KSGX 300253
MTRCZZ
METAR KCZZ 300252Z AUTO 00000KT 17/11 A2991 RMK AO1 SLP108 T01720111
51016 $





000
SAUS46 KSGX 300252
MTRSAN
METAR KSAN 300251Z 32005KT 10SM FEW017 21/17 A2988 RMK AO2 SLP118
T02110167 53007





000
SAUS46 KSGX 300153
MTRCZZ
METAR KCZZ 300152Z AUTO 21005KT 19/12 A2989 RMK AO1 SLP106 T01940117
$





000
SAUS46 KSGX 300152
MTRSAN
METAR KSAN 300151Z 29008KT 10SM CLR 22/16 A2987 RMK AO2 SLP114
T02170161





000
SAUS46 KSGX 300053
MTRCZZ
METAR KCZZ 300052Z AUTO 28008KT 23/11 A2988 RMK AO1 SLP096 T02330106
$





000
SAUS46 KSGX 300052
MTRSAN
METAR KSAN 300051Z 33009KT 10SM CLR 23/14 A2985 RMK AO2 SLP109
T02330144





000
SAUS46 KSGX 292353
MTRCZZ
METAR KCZZ 292352Z AUTO 26010KT 26/11 A2986 RMK AO1 SLP086 T02560106
10283 20239 55001 $





000
SAUS46 KSGX 292352
MTRSAN
METAR KSAN 292351Z 32010KT 10SM CLR 23/16 A2986 RMK AO2 SLP111
T02280161 10239 20228 58005





000
SAUS46 KSGX 292253
MTRCZZ
METAR KCZZ 292252Z AUTO 25006KT 26/08 A2986 RMK AO1 SLP084 T02610083
$





000
SAUS46 KSGX 292252
MTRSAN
METAR KSAN 292251Z 31014KT 10SM FEW015 23/15 A2987 RMK AO2 SLP114
T02280150





000
SAUS46 KSGX 292153
MTRCZZ
METAR KCZZ 292152Z AUTO 23012G20KT 28/07 A2985 RMK AO1 SLP081
T02780067 $





000
SAUS46 KSGX 292152
MTRSAN
METAR KSAN 292151Z 31011KT 10SM FEW015 24/16 A2987 RMK AO2 SLP115
T02390156





000
SAUS46 KSGX 292053
MTRCZZ
METAR KCZZ 292052Z AUTO 04010KT 28/02 A2986 RMK AO1 SLP083 T02780022
58018 $





000
SAUS46 KSGX 292052
MTRSAN
METAR KSAN 292051Z 31011G18KT 10SM CLR 23/14 A2987 RMK AO2 SLP116
T02330139 58021





000
SAUS46 KSGX 291953
MTRCZZ
METAR KCZZ 291952Z AUTO VRB06KT 27/01 A2989 RMK AO1 SLP095 T02720011
$





000
SAUS46 KSGX 291952
MTRSAN
METAR KSAN 291951Z 31010KT 10SM CLR 23/14 A2990 RMK AO2 SLP124
T02330144





000
SAUS46 KSGX 291853
MTRCZZ
METAR KCZZ 291852Z AUTO 06009KT 26/02 A2991 RMK AO1 SLP101 T02610022
$





000
SAUS46 KSGX 291852
MTRSAN
METAR KSAN 291851Z 31010KT 10SM CLR 23/13 A2993 RMK AO2 SLP134
T02330128





000
SAUS46 KSGX 291753
MTRCZZ
METAR KCZZ 291752Z AUTO 24/03 A2992 RMK AO1 SLP106 T02390033 10239
20039 58005 $





000
SAUS46 KSGX 291752
MTRSAN
METAR KSAN 291751Z 28008KT 10SM CLR 23/13 A2994 RMK AO2 SLP136
T02280128 10228 20178 58002





000
SAUS46 KSGX 291653
MTRCZZ
METAR KCZZ 291652Z AUTO 00000KT 19/04 A2993 RMK AO1 SLP115 T01940044
$





000
SAUS46 KSGX 291652
MTRSAN
METAR KSAN 291651Z VRB04KT 10SM FEW020 22/13 A2994 RMK AO2 SLP140
T02170128





000
SAUS46 KSGX 291553
MTRCZZ
METAR KCZZ 291552Z AUTO 00000KT 16/05 A2993 RMK AO1 SLP115 T01560050
$





000
SAUS46 KSGX 291553
MTRSAN
METAR KSAN 291551Z 34003KT 10SM FEW020 21/13 A2995 RMK AO2 SLP140
T02060133





000
SAUS46 KSGX 291453
MTRCZZ
METAR KCZZ 291452Z AUTO 05004KT 09/05 A2993 RMK AO1 SLP119 T00940050
52003 $





000
SAUS46 KSGX 291453
MTRSAN
METAR KSAN 291451Z 04004KT 9SM FEW025 19/13 A2994 RMK AO2 SLP138
T01890133 53007





000
SAUS46 KSGX 291353
MTRCZZ
METAR KCZZ 291352Z AUTO 02003KT 04/03 A2993 RMK AO1 SLP121 T00390028
$





000
SAUS46 KSGX 291352
MTRSAN
METAR KSAN 291351Z 03003KT 10SM FEW025 18/13 A2993 RMK AO2 SLP136
T01780133





000
SAUS46 KSGX 291253
MTRCZZ
METAR KCZZ 291252Z AUTO 04005KT 05/04 A2993 RMK AO1 SLP118 T00500039
$





000
SAUS46 KSGX 291252
MTRSAN
METAR KSAN 291251Z 10003KT 10SM FEW025 18/13 A2992 RMK AO2 SLP131
T01780133





000
SAUS46 KSGX 291153
MTRCZZ
METAR KCZZ 291152Z AUTO 06003KT 07/06 A2993 RMK AO1 SLP114 T00670061
10100 20067 55001 $





000
SAUS46 KSGX 291152
MTRSAN
METAR KSAN 291151Z 00000KT 10SM FEW024 18/13 A2992 RMK AO2 SLP131
T01780133 10200 20178 56007





000
SAUS46 KSGX 291053
MTRCZZ
METAR KCZZ 291052Z AUTO 01008KT 08/07 A2992 RMK AO1 SLP111 T00780072
$





000
SAUS46 KSGX 291052
MTRSAN
METAR KSAN 291051Z 00000KT 10SM FEW024 18/14 A2992 RMK AO2 SLP131
T01830139





000
SAUS46 KSGX 290953
MTRCZZ
METAR KCZZ 290952Z AUTO 02004KT 08/07 A2993 RMK AO1 SLP112 T00780072
$





000
SAUS46 KSGX 290952
MTRSAN
METAR KSAN 290951Z 02003KT 10SM FEW024 19/14 A2993 RMK AO2 SLP133
T01890139





000
SAUS46 KSGX 290853
MTRCZZ
METAR KCZZ 290852Z AUTO 36003KT 09/09 A2993 RMK AO1 SLP112 T00940089
55002 $





000
SAUS46 KSGX 290852
MTRSAN
METAR KSAN 290851Z 02004KT 10SM FEW024 19/14 A2994 RMK AO2 SLP138
T01890139 55000





000
SAUS46 KSGX 290753
MTRCZZ
METAR KCZZ 290752Z AUTO 00000KT 09/07 A2992 RMK AO1 SLP111 T00940072
402280067 $





000
SAUS46 KSGX 290752
MTRSAN
METAR KSAN 290751Z 03005KT 10SM FEW025 19/14 A2993 RMK AO2 SLP134
T01940144 402330189





000
SAUS46 KSGX 290653
MTRCZZ
METAR KCZZ 290652Z AUTO 34004KT 09/08 A2993 RMK AO1 SLP112 T00940078
$





000
SAUS46 KSGX 290652
MTRSAN
METAR KSAN 290651Z 02004KT 10SM FEW028 19/14 A2994 RMK AO2 SLP137
T01940139





000
SAUS46 KSGX 290553
MTRCZZ
METAR KCZZ 290552Z AUTO 02003KT 09/08 A2994 RMK AO1 SLP119 T00890078
10200 20089 53006 $





000
SAUS46 KSGX 290552
MTRSAN
METAR KSAN 290551Z 00000KT 10SM FEW029 20/14 A2994 RMK AO2 SLP138
T02000139 10217 20200 51005





000
SAUS46 KSGX 290453
MTRCZZ
METAR KCZZ 290452Z AUTO 03003KT 09/08 A2993 RMK AO1 SLP115 T00940078
$





000
SAUS46 KSGX 290452
MTRSAN
METAR KSAN 290451Z 00000KT 10SM FEW029 20/13 A2993 RMK AO2 SLP136
T02000133





000
SAUS46 KSGX 290353
MTRCZZ
METAR KCZZ 290352Z AUTO 00000KT 12/09 A2992 RMK AO1 SLP114 T01170094





000
SAUS46 KSGX 290352
MTRSAN
METAR KSAN 290351Z 31004KT 10SM FEW029 20/14 A2993 RMK AO2 SLP135
T02000144





000
SAUS46 KSGX 290253
MTRCZZ
METAR KCZZ 290252Z AUTO 27004KT 15/11 A2992 RMK AO1 SLP111 T01500111
51009





000
SAUS46 KSGX 290252
MTRSAN
METAR KSAN 290251Z 29005KT 10SM SCT029 21/14 A2992 RMK AO2 SLP132
T02060139 50004





000
SAUS46 KSGX 290240
MTRSAN
SPECI KSAN 290239Z 29005KT 10SM FEW026 SCT029 21/14 A2992 RMK AO2





000
SAUS46 KSGX 290153
MTRCZZ
METAR KCZZ 290152Z AUTO 29005KT 16/11 A2991 RMK AO1 SLP110 T01610111





000
SAUS46 KSGX 290152
MTRSAN
METAR KSAN 290151Z 28005KT 10SM FEW026 BKN029 21/14 A2992 RMK AO2
SLP133 T02060139





000
SAUS46 KSGX 290128
MTRSAN
SPECI KSAN 290127Z 29007KT 10SM SCT026 BKN029 21/13 A2993 RMK AO2





000
SAUS46 KSGX 290053
MTRSAN
METAR KSAN 290051Z 25007KT 220V280 10SM SCT026 BKN031 21/13 A2992
RMK AO2 SLP131 T02110133





000
SAUS46 KSGX 290053
MTRCZZ
METAR KCZZ 290052Z AUTO 23012KT 18/11 A2990 RMK AO1 SLP103 T01830111





000
SAUS46 KSGX 290044
MTRSAN
SPECI KSAN 290043Z 27008KT 10SM SCT029 BKN035 21/14 A2992 RMK AO2





000
SAUS46 KSGX 282353
MTRCZZ
METAR KCZZ 282352Z AUTO 23013KT 20/11 A2989 RMK AO1 SLP099 T02000106
10228 20167 55007





000
SAUS46 KSGX 282352
MTRSAN
METAR KSAN 282351Z 25010G14KT 10SM BKN024 BKN035 22/14 A2991 RMK AO2
SLP128 T02170144 10233 20217 55005





000
SAUS46 KSGX 282338
MTRSAN
SPECI KSAN 282336Z 25009KT 10SM BKN024 BKN035 22/14 A2991 RMK AO2





000
SAUS46 KSGX 282253
MTRCZZ
METAR KCZZ 282252Z AUTO 25013KT 22/08 A2988 RMK AO1 SLP096 T02220078





000
SAUS46 KSGX 282252
MTRSAN
METAR KSAN 282251Z 22009KT 10SM FEW025 SCT035 23/14 A2991 RMK AO2
SLP127 T02280139





000
SAUS46 KSGX 282153
MTRCZZ
METAR KCZZ 282152Z AUTO 26007G18KT 22/07 A2989 RMK AO1 SLP099
T02170067





000
SAUS46 KSGX 282152
MTRSAN
METAR KSAN 282151Z 25010KT 10SM FEW027 SCT035 SCT040 23/14 A2992 RMK
AO2 SLP130 T02280139





000
SAUS46 KSGX 282053
MTRCZZ
METAR KCZZ 282052Z AUTO 23010G21KT 200V280 22/07 A2991 RMK AO1
SLP106 T02170072 56014





000
SAUS46 KSGX 282052
MTRSAN
METAR KSAN 282051Z 22010KT 10SM FEW027 SCT035 SCT040 23/14 A2993 RMK
AO2 SLP133 T02280139 58012





    US Dept of Commerce
    National Oceanic and Atmospheric Administration
    National Weather Service
    1325 East West Highway
    Silver Spring, MD 20910
    Page Author: NWS Internet Services Team
Disclaimer
Information Quality
Credits
Glossary
Privacy Policy
Freedom of Information Act (FOIA)
About Us
Career Opportunities